DLH9TK EDDS-EDDF
Flight info
| Callsign | DLH9TK |
|---|---|
| Flight time | 0h 26m |
| Altitude | 22000 |
| Route | ETASA2H ETASA T163 SPESA SPESA5C |
| Aircraft | A319/M-SDE2E3FGIJ1LORWXYZ/HB1 |
Departure
| Time | 2026-05-05 09:48 |
|---|---|
| Airport | Stuttgart Airport (EDDS) |
Arrival
| Time | 2026-05-05 10:14 |
|---|---|
| Airport | Frankfurt Main Airport (EDDF) |
| Time | Latitude | Longitude | Altitude | Speed | Heading |
|---|---|---|---|---|---|
| 2026-05-05 09:24 | 48.68898 | 9.19427 | 1316 ft | 0 kts | 344° |
| 2026-05-05 09:38 | 48.68894 | 9.19429 | 1315 ft | 2 kts | 344° |
| 2026-05-05 09:38 | 48.68879 | 9.19436 | 1315 ft | 2 kts | 347° |
| 2026-05-05 09:39 | 48.68863 | 9.19441 | 1314 ft | 2 kts | 350° |
| 2026-05-05 09:39 | 48.68846 | 9.19445 | 1313 ft | 2 kts | 356° |
| 2026-05-05 09:39 | 48.68830 | 9.19445 | 1313 ft | 2 kts | 18° |
| 2026-05-05 09:39 | 48.68816 | 9.19432 | 1313 ft | 2 kts | 69° |
| 2026-05-05 09:40 | 48.68813 | 9.19422 | 1313 ft | 1 kts | 74° |
| 2026-05-05 09:40 | 48.68813 | 9.19420 | 1313 ft | 0 kts | 75° |
| 2026-05-05 09:41 | 48.68813 | 9.19421 | 1313 ft | 1 kts | 75° |
| 2026-05-05 09:41 | 48.68816 | 9.19434 | 1313 ft | 3 kts | 74° |
| 2026-05-05 09:42 | 48.68824 | 9.19477 | 1312 ft | 5 kts | 73° |
| 2026-05-05 09:42 | 48.68837 | 9.19546 | 1310 ft | 8 kts | 73° |
| 2026-05-05 09:42 | 48.68856 | 9.19644 | 1309 ft | 11 kts | 75° |
| 2026-05-05 09:42 | 48.68881 | 9.19772 | 1306 ft | 14 kts | 73° |
| 2026-05-05 09:43 | 48.68855 | 9.19889 | 1300 ft | 9 kts | 160° |
| 2026-05-05 09:43 | 48.68785 | 9.19941 | 1295 ft | 14 kts | 155° |
| 2026-05-05 09:43 | 48.68706 | 9.19977 | 1290 ft | 9 kts | 165° |
| 2026-05-05 09:43 | 48.68675 | 9.19990 | 1288 ft | 0 kts | 163° |
| 2026-05-05 09:46 | 48.68649 | 9.20002 | 1286 ft | 8 kts | 163° |
| 2026-05-05 09:46 | 48.68591 | 9.20027 | 1286 ft | 7 kts | 164° |
| 2026-05-05 09:46 | 48.68589 | 9.20093 | 1283 ft | 8 kts | 73° |
| 2026-05-05 09:47 | 48.68622 | 9.20266 | 1279 ft | 44 kts | 74° |
| 2026-05-05 09:47 | 48.68802 | 9.21204 | 1259 ft | 123 kts | 74° |
| 2026-05-05 09:47 | 48.69072 | 9.22618 | 1279 ft | 168 kts | 72° |
| 2026-05-05 09:47 | 48.69378 | 9.24339 | 1868 ft | 169 kts | 74° |
| 2026-05-05 09:48 | 48.69699 | 9.26049 | 2504 ft | 170 kts | 73° |
| 2026-05-05 09:48 | 48.70039 | 9.27859 | 2930 ft | 189 kts | 73° |
| 2026-05-05 09:48 | 48.70427 | 9.29903 | 3264 ft | 214 kts | 73° |
| 2026-05-05 09:48 | 48.70863 | 9.32191 | 3732 ft | 238 kts | 74° |
| 2026-05-05 09:49 | 48.71346 | 9.34716 | 4267 ft | 260 kts | 74° |
| 2026-05-05 09:49 | 48.71860 | 9.37394 | 5130 ft | 268 kts | 74° |
| 2026-05-05 09:49 | 48.72441 | 9.40101 | 6066 ft | 274 kts | 66° |
| 2026-05-05 09:49 | 48.73719 | 9.42268 | 6912 ft | 284 kts | 32° |
| 2026-05-05 09:50 | 48.75562 | 9.43379 | 7824 ft | 288 kts | 14° |
| 2026-05-05 09:50 | 48.77569 | 9.43586 | 8731 ft | 294 kts | 351° |
| 2026-05-05 09:50 | 48.79537 | 9.42694 | 9658 ft | 297 kts | 336° |
| 2026-05-05 09:50 | 48.81394 | 9.41242 | 10317 ft | 310 kts | 330° |
| 2026-05-05 09:51 | 48.83347 | 9.39717 | 11025 ft | 317 kts | 333° |
| 2026-05-05 09:51 | 48.85339 | 9.38260 | 11876 ft | 321 kts | 333° |
| 2026-05-05 09:51 | 48.87374 | 9.36803 | 12678 ft | 325 kts | 333° |
| 2026-05-05 09:51 | 48.89441 | 9.35321 | 13487 ft | 330 kts | 333° |
| 2026-05-05 09:52 | 48.91529 | 9.33814 | 14206 ft | 335 kts | 333° |
| 2026-05-05 09:52 | 48.93641 | 9.32258 | 14913 ft | 339 kts | 332° |
| 2026-05-05 09:52 | 48.95767 | 9.30660 | 15620 ft | 343 kts | 332° |
| 2026-05-05 09:52 | 48.97884 | 9.29055 | 16311 ft | 347 kts | 331° |
| 2026-05-05 09:53 | 49.00056 | 9.27397 | 16996 ft | 351 kts | 331° |
| 2026-05-05 09:53 | 49.02256 | 9.25716 | 17710 ft | 355 kts | 331° |
| 2026-05-05 09:53 | 49.04476 | 9.24019 | 18360 ft | 360 kts | 331° |
| 2026-05-05 09:53 | 49.06727 | 9.22301 | 18966 ft | 363 kts | 331° |
| 2026-05-05 09:54 | 49.08990 | 9.20573 | 19591 ft | 366 kts | 331° |
| 2026-05-05 09:54 | 49.11274 | 9.18824 | 20215 ft | 368 kts | 331° |
| 2026-05-05 09:54 | 49.13569 | 9.17061 | 20829 ft | 371 kts | 331° |
| 2026-05-05 09:54 | 49.15882 | 9.15289 | 21449 ft | 374 kts | 332° |
| 2026-05-05 09:55 | 49.18329 | 9.13877 | 21794 ft | 378 kts | 344° |
| 2026-05-05 09:55 | 49.20938 | 9.13259 | 21871 ft | 380 kts | 356° |
| 2026-05-05 09:55 | 49.23596 | 9.13457 | 21878 ft | 377 kts | 5° |
| 2026-05-05 09:55 | 49.26242 | 9.13873 | 21879 ft | 395 kts | 5° |
| 2026-05-05 09:56 | 49.28987 | 9.14284 | 21767 ft | 393 kts | 5° |
| 2026-05-05 09:56 | 49.31703 | 9.14674 | 21311 ft | 390 kts | 5° |
| 2026-05-05 09:56 | 49.34361 | 9.15046 | 20837 ft | 388 kts | 5° |
| 2026-05-05 09:56 | 49.37040 | 9.15418 | 20360 ft | 386 kts | 5° |
| 2026-05-05 09:57 | 49.39706 | 9.15789 | 19904 ft | 383 kts | 4° |
| 2026-05-05 09:57 | 49.42355 | 9.16161 | 19452 ft | 381 kts | 5° |
| 2026-05-05 09:57 | 49.45016 | 9.16534 | 18998 ft | 379 kts | 4° |
| 2026-05-05 09:57 | 49.47623 | 9.16902 | 18564 ft | 378 kts | 5° |
| 2026-05-05 09:58 | 49.50244 | 9.17279 | 18111 ft | 376 kts | 5° |
| 2026-05-05 09:58 | 49.52846 | 9.17658 | 17633 ft | 374 kts | 5° |
| 2026-05-05 09:58 | 49.55403 | 9.18030 | 17196 ft | 371 kts | 4° |
| 2026-05-05 09:58 | 49.57959 | 9.18400 | 16770 ft | 368 kts | 4° |
| 2026-05-05 09:59 | 49.60503 | 9.18768 | 16356 ft | 365 kts | 4° |
| 2026-05-05 09:59 | 49.63027 | 9.19165 | 15940 ft | 363 kts | 8° |
| 2026-05-05 09:59 | 49.65436 | 9.20247 | 15559 ft | 360 kts | 24° |
| 2026-05-05 09:59 | 49.67566 | 9.22259 | 15176 ft | 357 kts | 40° |
| 2026-05-05 10:00 | 49.69325 | 9.24931 | 14794 ft | 354 kts | 47° |
| 2026-05-05 10:00 | 49.71027 | 9.27666 | 14389 ft | 352 kts | 44° |
| 2026-05-05 10:00 | 49.72984 | 9.29908 | 14008 ft | 349 kts | 28° |
| 2026-05-05 10:00 | 49.75201 | 9.31285 | 13642 ft | 346 kts | 13° |
| 2026-05-05 10:01 | 49.77539 | 9.32052 | 13201 ft | 343 kts | 10° |
| 2026-05-05 10:01 | 49.79878 | 9.32792 | 12785 ft | 340 kts | 11° |
| 2026-05-05 10:01 | 49.82194 | 9.33456 | 12374 ft | 337 kts | 4° |
| 2026-05-05 10:01 | 49.84469 | 9.33000 | 11990 ft | 329 kts | 337° |
| 2026-05-05 10:02 | 49.86356 | 9.31100 | 11576 ft | 322 kts | 311° |
| 2026-05-05 10:02 | 49.87514 | 9.28194 | 11158 ft | 315 kts | 287° |
| 2026-05-05 10:02 | 49.88156 | 9.24949 | 10696 ft | 315 kts | 284° |
| 2026-05-05 10:02 | 49.88759 | 9.21747 | 10406 ft | 309 kts | 284° |
| 2026-05-05 10:03 | 49.89375 | 9.18607 | 10234 ft | 300 kts | 289° |
| 2026-05-05 10:03 | 49.90446 | 9.15869 | 9990 ft | 297 kts | 311° |
| 2026-05-05 10:03 | 49.92071 | 9.13939 | 9691 ft | 295 kts | 333° |
| 2026-05-05 10:03 | 49.94036 | 9.13087 | 9315 ft | 294 kts | 356° |
| 2026-05-05 10:04 | 49.96053 | 9.13411 | 8929 ft | 292 kts | 18° |
| 2026-05-05 10:04 | 49.97844 | 9.14846 | 8537 ft | 290 kts | 39° |
| 2026-05-05 10:04 | 49.99238 | 9.17076 | 8143 ft | 287 kts | 50° |
| 2026-05-05 10:04 | 50.00554 | 9.19412 | 7755 ft | 287 kts | 50° |
| 2026-05-05 10:05 | 50.02019 | 9.21506 | 7360 ft | 286 kts | 32° |
| 2026-05-05 10:05 | 50.03862 | 9.22604 | 6972 ft | 285 kts | 9° |
| 2026-05-05 10:05 | 50.05824 | 9.22484 | 6620 ft | 281 kts | 343° |
| 2026-05-05 10:05 | 50.07553 | 9.21231 | 6499 ft | 280 kts | 326° |
| 2026-05-05 10:06 | 50.09217 | 9.19610 | 6380 ft | 281 kts | 326° |
| 2026-05-05 10:06 | 50.10898 | 9.17982 | 6255 ft | 281 kts | 326° |
| 2026-05-05 10:06 | 50.12558 | 9.16381 | 6127 ft | 280 kts | 327° |
| 2026-05-05 10:06 | 50.14133 | 9.14623 | 5995 ft | 277 kts | 313° |
| 2026-05-05 10:07 | 50.15199 | 9.12166 | 5870 ft | 273 kts | 290° |
| 2026-05-05 10:07 | 50.15590 | 9.09301 | 5732 ft | 270 kts | 268° |
| 2026-05-05 10:07 | 50.15264 | 9.06440 | 5604 ft | 263 kts | 249° |
| 2026-05-05 10:07 | 50.14651 | 9.03847 | 5434 ft | 251 kts | 248° |
| 2026-05-05 10:08 | 50.14057 | 9.01293 | 5145 ft | 247 kts | 249° |
| 2026-05-05 10:08 | 50.13489 | 8.98856 | 5080 ft | 232 kts | 249° |
| 2026-05-05 10:08 | 50.12954 | 8.96565 | 5032 ft | 219 kts | 249° |
| 2026-05-05 10:08 | 50.12431 | 8.94336 | 4982 ft | 218 kts | 249° |
| 2026-05-05 10:09 | 50.11919 | 8.92151 | 4800 ft | 217 kts | 249° |
| 2026-05-05 10:09 | 50.11401 | 8.89944 | 4537 ft | 216 kts | 249° |
| 2026-05-05 10:09 | 50.10886 | 8.87749 | 4251 ft | 215 kts | 249° |
| 2026-05-05 10:09 | 50.10370 | 8.85556 | 3959 ft | 214 kts | 249° |
| 2026-05-05 10:10 | 50.09863 | 8.83399 | 3674 ft | 214 kts | 249° |
| 2026-05-05 10:10 | 50.09351 | 8.81226 | 3396 ft | 214 kts | 249° |
| 2026-05-05 10:10 | 50.08840 | 8.79059 | 3114 ft | 212 kts | 249° |
| 2026-05-05 10:10 | 50.08333 | 8.76914 | 2817 ft | 204 kts | 249° |
| 2026-05-05 10:11 | 50.07852 | 8.74875 | 2548 ft | 197 kts | 250° |
| 2026-05-05 10:11 | 50.07433 | 8.73105 | 2333 ft | 194 kts | 250° |
| 2026-05-05 10:11 | 50.07141 | 8.71087 | 2187 ft | 180 kts | 261° |
| 2026-05-05 10:11 | 50.06918 | 8.69218 | 1867 ft | 174 kts | 257° |
| 2026-05-05 10:12 | 50.06598 | 8.67547 | 1678 ft | 153 kts | 251° |
| 2026-05-05 10:12 | 50.06254 | 8.66032 | 1425 ft | 141 kts | 251° |
| 2026-05-05 10:12 | 50.05919 | 8.64630 | 1185 ft | 137 kts | 250° |
| 2026-05-05 10:12 | 50.05601 | 8.63247 | 993 ft | 135 kts | 251° |
| 2026-05-05 10:13 | 50.05270 | 8.61879 | 830 ft | 135 kts | 246° |
| 2026-05-05 10:13 | 50.04955 | 8.60497 | 633 ft | 135 kts | 249° |
| 2026-05-05 10:13 | 50.04619 | 8.59143 | 481 ft | 134 kts | 250° |
| 2026-05-05 10:13 | 50.04359 | 8.58061 | 376 ft | 134 kts | 250° |
| 2026-05-05 10:14 | 50.04083 | 8.56929 | 346 ft | 106 kts | 250° |
| 2026-05-05 10:14 | 50.03899 | 8.56113 | 347 ft | 42 kts | 250° |
| 2026-05-05 10:14 | 50.03894 | 8.55790 | 346 ft | 17 kts | 276° |
| 2026-05-05 10:14 | 50.03903 | 8.55718 | 346 ft | 0 kts | 285° |
| 2026-05-05 10:15 | 50.03904 | 8.55715 | 346 ft | 1 kts | 285° |
| 2026-05-05 10:15 | 50.03906 | 8.55704 | 347 ft | 2 kts | 285° |
| 2026-05-05 10:15 | 50.03923 | 8.55656 | 347 ft | 14 kts | 312° |
| 2026-05-05 10:15 | 50.04007 | 8.55781 | 347 ft | 19 kts | 69° |
| 2026-05-05 10:16 | 50.04040 | 8.55912 | 351 ft | 20 kts | 69° |
| 2026-05-05 10:16 | 50.04078 | 8.56068 | 349 ft | 10 kts | 69° |
| 2026-05-05 10:16 | 50.04095 | 8.56139 | 347 ft | 11 kts | 70° |
| 2026-05-05 10:16 | 50.04122 | 8.56257 | 347 ft | 12 kts | 70° |
| 2026-05-05 10:17 | 50.04153 | 8.56387 | 347 ft | 14 kts | 70° |
| 2026-05-05 10:17 | 50.04199 | 8.56580 | 348 ft | 15 kts | 69° |
| 2026-05-05 10:17 | 50.04225 | 8.56684 | 346 ft | 16 kts | 70° |
| 2026-05-05 10:17 | 50.04263 | 8.56847 | 352 ft | 16 kts | 69° |
| 2026-05-05 10:18 | 50.04303 | 8.57017 | 351 ft | 17 kts | 70° |
| 2026-05-05 10:18 | 50.04346 | 8.57196 | 350 ft | 18 kts | 69° |
| 2026-05-05 10:18 | 50.04391 | 8.57384 | 349 ft | 19 kts | 70° |
| 2026-05-05 10:18 | 50.04438 | 8.57581 | 347 ft | 20 kts | 70° |
| 2026-05-05 10:19 | 50.04486 | 8.57785 | 350 ft | 20 kts | 69° |
| 2026-05-05 10:19 | 50.04537 | 8.57988 | 348 ft | 17 kts | 65° |
| 2026-05-05 10:19 | 50.04635 | 8.58004 | 351 ft | 16 kts | 338° |
| 2026-05-05 10:19 | 50.04743 | 8.57938 | 349 ft | 17 kts | 340° |
| 2026-05-05 10:20 | 50.04843 | 8.57850 | 349 ft | 17 kts | 302° |
| 2026-05-05 10:20 | 50.04892 | 8.57673 | 349 ft | 18 kts | 292° |
| 2026-05-05 10:20 | 50.04939 | 8.57514 | 351 ft | 12 kts | 293° |
| 2026-05-05 10:20 | 50.04964 | 8.57434 | 353 ft | 5 kts | 303° |
| 2026-05-05 10:21 | 50.04994 | 8.57407 | 349 ft | 3 kts | 337° |
| 2026-05-05 10:21 | 50.05003 | 8.57412 | 346 ft | 1 kts | 44° |
| 2026-05-05 10:21 | 50.05003 | 8.57417 | 347 ft | 1 kts | 75° |
| 2026-05-05 10:21 | 50.05004 | 8.57429 | 347 ft | 1 kts | 75° |
| 2026-05-05 10:22 | 50.05005 | 8.57433 | 347 ft | 0 kts | 75° |